Time;durP1;ratioP1;P1;durP2;ratioP2;P2;SDS_P1;SDS_P2;PMS_P1;PMS_P2;Temp;Humidity;BMP_temperature;BMP_pressure;BME280_temperature;BME280_humidity;BME280_pressure;Samples;Min_cycle;Max_cycle;Signal;HPM_P1;HPM_P2
2021/03/21 00:00:40;;;;;;;7.20;5.28;;;;;;;12.45;58.80;99878.48;1792859;79;21151;-67
2021/03/21 00:03:08;;;;;;;5.50;4.67;;;;;;;12.44;58.82;99879.98;1765834;80;21154;-66
2021/03/21 00:05:35;;;;;;;6.95;5.62;;;;;;;12.41;58.84;99876.36;1778718;80;21156;-67
2021/03/21 00:08:16;;;;;;;6.12;4.87;;;;;;;12.39;58.86;99871.20;1781746;79;21166;-67
2021/03/21 00:10:51;;;;;;;6.20;5.00;;;;;;;12.37;58.92;99875.88;1740533;81;21150;-67
2021/03/21 00:13:19;;;;;;;6.12;4.85;;;;;;;12.44;58.86;99874.65;1743027;81;21179;-66
2021/03/21 00:15:47;;;;;;;6.45;5.40;;;;;;;12.52;58.61;99877.28;1767050;80;21337;-67
2021/03/21 00:18:17;;;;;;;6.42;5.50;;;;;;;12.49;58.61;99871.78;1770359;80;21175;-66
2021/03/21 00:20:45;;;;;;;6.85;5.37;;;;;;;12.45;58.66;99870.99;1787392;79;21191;-66
2021/03/21 00:23:12;;;;;;;6.70;4.90;;;;;;;12.42;58.69;99871.34;1783619;79;22267;-67
2021/03/21 00:25:39;;;;;;;6.55;5.75;;;;;;;12.40;58.75;99868.88;1780519;79;21173;-67
2021/03/21 00:28:10;;;;;;;6.90;5.50;;;;;;;12.37;58.76;99859.38;1759143;80;21796;-67
2021/03/21 00:30:41;;;;;;;6.75;5.55;;;;;;;12.36;58.76;99855.55;1754169;79;21150;-67
2021/03/21 00:33:13;;;;;;;5.80;5.22;;;;;;;12.33;58.79;99863.41;1773494;80;21154;-67
2021/03/21 00:35:40;;;;;;;8.05;5.17;;;;;;;12.31;58.82;99857.94;1770984;79;21186;-67
2021/03/21 00:38:19;;;;;;;5.85;4.75;;;;;;;12.28;58.83;99857.77;1785574;79;21219;-67
2021/03/21 00:40:47;;;;;;;5.65;4.40;;;;;;;12.26;58.85;99854.45;1774613;79;21551;-67
2021/03/21 00:43:14;;;;;;;5.42;4.67;;;;;;;12.24;58.83;99849.80;1775512;80;21186;-67
2021/03/21 00:45:42;;;;;;;7.28;6.00;;;;;;;12.22;58.90;99851.00;1774931;79;21130;-68
2021/03/21 00:49:57;;;;;;;5.67;4.67;;;;;;;12.24;58.95;99844.48;1875262;74;28264;-67
2021/03/21 00:52:25;;;;;;;4.92;4.37;;;;;;;12.13;59.00;99852.38;1830596;77;21252;-67
2021/03/21 00:54:52;;;;;;;7.15;5.70;;;;;;;12.12;59.01;99854.70;1793196;79;21344;-66
2021/03/21 00:57:22;;;;;;;6.40;5.30;;;;;;;12.11;59.02;99849.07;1769669;79;21174;-68
2021/03/21 00:59:49;;;;;;;6.83;5.60;;;;;;;12.12;59.01;99853.88;1788112;77;21550;-68
2021/03/21 01:02:17;;;;;;;6.20;5.20;;;;;;;12.09;59.04;99851.56;1800372;79;21146;-68
2021/03/21 01:04:44;;;;;;;5.70;5.10;;;;;;;12.09;59.07;99847.56;1787441;79;21111;-68
2021/03/21 01:07:12;;;;;;;5.40;4.60;;;;;;;12.14;58.95;99848.70;1779993;79;21210;-68
2021/03/21 01:09:39;;;;;;;6.65;4.65;;;;;;;12.25;58.73;99854.66;1787322;77;21155;-68
2021/03/21 01:12:08;;;;;;;5.67;4.80;;;;;;;12.21;58.69;99852.84;1790692;79;21174;-69
2021/03/21 01:14:35;;;;;;;5.92;4.85;;;;;;;12.18;58.72;99843.86;1777779;79;21158;-68
2021/03/21 01:17:04;;;;;;;5.83;4.87;;;;;;;12.14;58.76;99839.38;1789596;79;21154;-66
2021/03/21 01:19:32;;;;;;;5.75;4.65;;;;;;;12.12;58.77;99841.39;1793117;79;22291;-67
2021/03/21 01:21:59;;;;;;;6.37;5.60;;;;;;;12.11;58.78;99842.41;1795071;77;21158;-67
2021/03/21 01:24:27;;;;;;;6.37;4.72;;;;;;;12.10;58.79;99836.75;1787749;79;21162;-67
2021/03/21 01:26:54;;;;;;;5.97;4.62;;;;;;;12.01;58.80;99825.81;1809143;79;21126;-66
2021/03/21 01:29:25;;;;;;;6.75;5.22;;;;;;;12.06;58.81;99838.11;1789624;79;21150;-67
2021/03/21 01:31:53;;;;;;;6.25;4.60;;;;;;;12.04;58.82;99836.63;1792905;79;21487;-66
2021/03/21 01:34:21;;;;;;;5.53;4.78;;;;;;;12.02;58.82;99840.80;1789998;79;21185;-66
2021/03/21 01:36:48;;;;;;;5.45;4.95;;;;;;;12.00;58.84;99844.14;1752348;79;21158;-67
2021/03/21 01:39:23;;;;;;;6.35;5.03;;;;;;;11.98;58.91;99833.66;1754237;79;21627;-67
2021/03/21 01:42:03;;;;;;;5.55;4.78;;;;;;;11.97;58.92;99835.16;1758357;80;21187;-67
2021/03/21 01:44:31;;;;;;;6.65;5.05;;;;;;;11.95;58.93;99837.98;1758131;79;21387;-67
2021/03/21 01:47:06;;;;;;;5.95;4.87;;;;;;;11.92;58.94;99833.53;1770796;79;21144;-67
2021/03/21 01:49:38;;;;;;;5.83;4.95;;;;;;;11.91;58.97;99830.53;1797282;77;21183;-65
2021/03/21 01:52:06;;;;;;;4.90;4.28;;;;;;;11.88;58.99;99826.84;1791284;79;22470;-66
2021/03/21 01:54:35;;;;;;;5.50;4.22;;;;;;;11.95;58.92;99823.34;1774744;79;21183;-67
2021/03/21 01:57:06;;;;;;;5.67;4.85;;;;;;;12.05;58.71;99823.63;1745515;80;22148;-67
2021/03/21 01:59:36;;;;;;;5.67;4.80;;;;;;;12.00;58.70;99819.66;1794334;77;21144;-67
2021/03/21 02:02:05;;;;;;;6.60;4.62;;;;;;;11.97;58.74;99814.67;1778533;79;21199;-66
2021/03/21 02:04:35;;;;;;;6.15;4.97;;;;;;;11.95;58.71;99811.36;1775037;79;21183;-67
2021/03/21 02:07:26;;;;;;;4.80;4.20;;;;;;;11.93;58.73;99812.55;1764951;79;21179;-66
2021/03/21 02:10:02;;;;;;;5.28;4.25;;;;;;;11.90;58.77;99815.07;1766986;80;21391;-66
2021/03/21 02:12:48;;;;;;;5.35;4.72;;;;;;;11.87;58.78;99809.23;1754437;80;21235;-67
2021/03/21 02:15:33;;;;;;;5.28;3.85;;;;;;;11.84;58.85;99809.57;1766482;79;21151;-66
2021/03/21 02:18:23;;;;;;;5.58;4.35;;;;;;;11.81;58.87;99802.77;1761512;79;21139;-67
2021/03/21 02:21:24;;;;;;;5.08;4.58;;;;;;;11.78;58.92;99803.11;1767605;79;21155;-67
2021/03/21 02:24:18;;;;;;;5.97;4.97;;;;;;;11.75;58.93;99799.48;1797925;79;21313;-68
2021/03/21 02:27:17;;;;;;;5.70;4.80;;;;;;;11.71;59.03;99802.98;1779370;79;25855;-67
2021/03/21 02:30:02;;;;;;;4.92;4.20;;;;;;;11.69;59.07;99798.85;1782892;79;21680;-67
2021/03/21 02:32:34;;;;;;;5.33;4.33;;;;;;;11.64;59.11;99800.69;1778748;78;21574;-67
2021/03/21 02:35:37;;;;;;;5.33;4.37;;;;;;;11.61;59.14;99798.39;1795992;79;21142;-68
2021/03/21 02:38:28;;;;;;;5.28;4.30;;;;;;;11.59;59.16;99797.23;1779022;77;21360;-67
2021/03/21 02:41:04;;;;;;;6.60;4.63;;;;;;;11.68;59.03;99797.18;1796114;79;21166;-68
2021/03/21 02:43:41;;;;;;;5.72;4.62;;;;;;;11.73;58.87;99789.00;1759418;79;21788;-69
2021/03/21 02:46:13;;;;;;;5.30;4.58;;;;;;;11.68;58.92;99790.02;1762533;79;21175;-68
2021/03/21 02:48:48;;;;;;;5.12;4.60;;;;;;;11.65;58.93;99786.39;1774181;79;21171;-69
2021/03/21 02:51:26;;;;;;;5.85;4.95;;;;;;;11.63;58.96;99784.41;1751905;80;22269;-68
2021/03/21 02:54:01;;;;;;;5.22;4.17;;;;;;;11.61;58.99;99792.56;1764154;79;21155;-69
2021/03/21 02:56:30;;;;;;;5.62;4.25;;;;;;;11.60;58.98;99788.23;1759234;80;21697;-67
2021/03/21 02:59:18;;;;;;;4.92;4.42;;;;;;;11.58;58.98;99785.42;1754378;79;21191;-68
2021/03/21 03:01:52;;;;;;;4.28;3.67;;;;;;;11.58;59.00;99780.09;1771570;79;21151;-67
2021/03/21 03:04:30;;;;;;;4.72;4.00;;;;;;;11.55;59.06;99772.45;1775090;79;21328;-66
2021/03/21 03:07:10;;;;;;;5.50;4.20;;;;;;;11.53;59.06;99773.13;1775133;79;21135;-66
2021/03/21 03:09:42;;;;;;;4.83;4.00;;;;;;;11.51;59.03;99760.50;1758136;79;21175;-67
2021/03/21 03:12:17;;;;;;;5.28;4.35;;;;;;;11.50;59.06;99763.67;1753379;79;21354;-66
2021/03/21 03:14:47;;;;;;;5.97;4.62;;;;;;;11.49;59.04;99766.02;1761159;80;21116;-67
2021/03/21 03:17:40;;;;;;;5.20;4.25;;;;;;;11.48;59.09;99772.84;1758572;79;21334;-67
2021/03/21 03:20:20;;;;;;;5.78;4.72;;;;;;;11.46;59.05;99774.34;1761300;80;22134;-67
2021/03/21 03:23:08;;;;;;;5.28;4.53;;;;;;;11.45;59.07;99778.49;1760845;79;21111;-66
2021/03/21 03:25:51;;;;;;;4.40;3.80;;;;;;;11.43;59.10;99776.00;1758210;80;21155;-66
2021/03/21 03:28:40;;;;;;;4.80;3.87;;;;;;;11.51;59.03;99768.00;1752665;80;21186;-67
2021/03/21 03:31:22;;;;;;;5.00;4.03;;;;;;;11.57;58.80;99769.97;1768305;79;21395;-67
2021/03/21 03:33:49;;;;;;;5.53;4.45;;;;;;;11.52;58.80;99764.33;1771228;79;21172;-67
2021/03/21 03:36:19;;;;;;;4.55;3.77;;;;;;;11.49;58.88;99762.51;1757671;79;21160;-68
2021/03/21 03:38:48;;;;;;;4.35;3.50;;;;;;;11.47;58.90;99764.00;1752667;80;21155;-67
2021/03/21 03:41:36;;;;;;;5.17;4.15;;;;;;;11.47;58.91;99757.86;1751712;79;21632;-67
2021/03/21 03:44:33;;;;;;;4.17;3.75;;;;;;;11.45;58.91;99759.36;1761985;79;21212;-67
2021/03/21 03:47:22;;;;;;;4.25;3.80;;;;;;;11.42;58.95;99759.73;1751462;80;21611;-67
2021/03/21 03:50:20;;;;;;;5.58;4.12;;;;;;;11.39;58.92;99758.22;1778678;79;21175;-66
2021/03/21 03:53:10;;;;;;;5.42;3.80;;;;;;;11.36;58.98;99758.59;1778155;79;21182;-67
2021/03/21 03:55:55;;;;;;;5.22;4.37;;;;;;;11.32;59.04;99750.63;1775598;78;21179;-67
2021/03/21 03:58:27;;;;;;;4.35;3.95;;;;;;;11.31;59.06;99749.46;1764735;78;21290;-67
2021/03/21 04:01:05;;;;;;;5.10;4.25;;;;;;;11.29;59.06;99752.29;1769610;80;21604;-67
2021/03/21 04:03:52;;;;;;;5.17;4.12;;;;;;;11.28;59.12;99748.47;1770536;78;21183;-68
2021/03/21 04:06:52;;;;;;;4.58;3.87;;;;;;;11.27;59.07;99749.48;1758109;79;21187;-69
2021/03/21 04:09:49;;;;;;;4.15;3.65;;;;;;;11.26;59.13;99743.34;1767867;78;21163;-69
2021/03/21 04:12:30;;;;;;;4.42;3.95;;;;;;;11.21;59.18;99747.02;1749794;78;21123;-69
2021/03/21 04:15:11;;;;;;;5.40;3.98;;;;;;;11.24;59.21;99741.84;1811401;77;28226;-68
2021/03/21 04:17:58;;;;;;;4.33;3.90;;;;;;;11.28;59.13;99746.66;1804696;79;21161;-68
2021/03/21 04:20:39;;;;;;;5.67;4.15;;;;;;;11.38;58.89;99739.80;1798572;79;21285;-67
2021/03/21 04:23:27;;;;;;;4.50;4.10;;;;;;;11.33;58.93;99741.63;1811460;79;21031;-67
2021/03/21 04:26:03;;;;;;;4.45;3.95;;;;;;;11.31;58.94;99742.81;1786183;77;21070;-67
2021/03/21 04:28:41;;;;;;;4.55;3.92;;;;;;;11.29;58.99;99746.97;1785411;79;21138;-68
2021/03/21 04:31:13;;;;;;;4.30;3.87;;;;;;;11.28;59.00;99743.15;1795922;77;21126;-68
2021/03/21 04:33:50;;;;;;;4.28;3.87;;;;;;;11.27;59.00;99730.87;1787271;79;21195;-69
2021/03/21 04:36:24;;;;;;;5.17;3.58;;;;;;;11.27;59.00;99733.53;1793922;79;21174;-69
2021/03/21 04:39:10;;;;;;;;;;;;;;;11.26;59.01;99726.53;1782556;79;21119;-67
2021/03/21 04:41:49;;;;;;;4.78;4.05;;;;;;;11.26;58.98;99732.70;1796768;79;20350;-67
2021/03/21 04:44:28;;;;;;;4.17;3.40;;;;;;;11.16;59.15;99730.25;1796287;77;21142;-68
2021/03/21 04:47:13;;;;;;;4.95;4.08;;;;;;;11.16;59.16;99726.27;1792255;77;21237;-68
2021/03/21 04:49:41;;;;;;;4.53;3.83;;;;;;;11.18;59.16;99726.06;1781613;79;21123;-68
2021/03/21 04:52:18;;;;;;;5.08;3.90;;;;;;;11.18;59.09;99729.58;1797662;77;21121;-68
2021/03/21 04:54:47;;;;;;;5.08;4.10;;;;;;;11.18;59.11;99726.92;1783057;79;21185;-68
2021/03/21 04:57:47;;;;;;;4.72;3.75;;;;;;;11.18;59.09;99722.94;1787347;77;21161;-68
2021/03/21 05:00:27;;;;;;;4.10;3.70;;;;;;;11.20;59.14;99729.38;1788311;79;25659;-69
2021/03/21 05:02:58;;;;;;;5.35;4.17;;;;;;;11.19;59.19;99725.91;1795233;79;21146;-67
2021/03/21 05:05:32;;;;;;;5.12;4.28;;;;;;;11.19;59.19;99721.91;1784400;79;21161;-68
2021/03/21 05:08:11;;;;;;;3.95;3.22;;;;;;;11.20;59.15;99719.59;1800452;77;21561;-67
2021/03/21 05:10:49;;;;;;;4.80;3.52;;;;;;;11.21;59.17;99720.42;1798567;79;21139;-69
2021/03/21 05:13:22;;;;;;;3.70;3.40;;;;;;;11.32;59.02;99728.50;1783736;77;21188;-70
2021/03/21 05:16:07;;;;;;;4.10;3.65;;;;;;;11.41;58.83;99730.12;1794838;77;21177;-70
2021/03/21 05:19:03;;;;;;;5.05;4.15;;;;;;;11.40;58.80;99730.63;1785396;79;21150;-70
2021/03/21 05:21:41;;;;;;;4.30;3.90;;;;;;;11.39;58.84;99732.95;1789034;79;21186;-69
2021/03/21 05:24:26;;;;;;;4.53;3.83;;;;;;;11.38;58.85;99727.32;1779685;79;21118;-69
2021/03/21 05:27:02;;;;;;;4.97;3.60;;;;;;;11.39;58.91;99726.81;1783745;79;21942;-68
2021/03/21 05:29:47;;;;;;;4.25;3.85;;;;;;;11.40;58.88;99735.13;1793302;79;21416;-67
2021/03/21 05:32:16;;;;;;;4.10;3.67;;;;;;;11.41;58.91;99734.97;1797361;78;21146;-69
2021/03/21 05:34:44;;;;;;;4.37;3.47;;;;;;;11.42;58.91;99727.81;1774232;79;21166;-67
2021/03/21 05:37:41;;;;;;;4.40;3.80;;;;;;;11.44;58.93;99724.98;1792916;79;21334;-66
2021/03/21 05:40:48;;;;;;;5.05;4.00;;;;;;;11.46;58.91;99726.45;1781196;78;21374;-67
2021/03/21 05:44:04;;;;;;;4.53;4.00;;;;;;;11.47;58.95;99720.63;1772354;78;21187;-67
2021/03/21 05:46:56;;;;;;;4.87;3.50;;;;;;;11.48;59.00;99727.61;1781335;79;21230;-68
2021/03/21 05:49:35;;;;;;;4.28;3.85;;;;;;;11.47;59.05;99724.10;1782521;78;21648;-67
2021/03/21 05:52:32;;;;;;;4.47;3.77;;;;;;;11.48;59.07;99737.75;1794061;78;21191;-69
2021/03/21 05:56:00;;;;;;;4.62;3.83;;;;;;;11.49;59.15;99731.92;1798484;78;21152;-68
2021/03/21 05:59:00;;;;;;;4.37;3.72;;;;;;;11.50;59.17;99729.59;1782149;78;21162;-68
2021/03/21 06:01:46;;;;;;;4.15;3.65;;;;;;;11.49;59.24;99725.27;1789076;78;21143;-67
2021/03/21 06:04:45;;;;;;;5.08;4.03;;;;;;;11.61;59.18;99728.70;1792860;78;21161;-67
2021/03/21 06:08:05;;;;;;;4.10;3.45;;;;;;;11.71;59.04;99719.67;1800446;78;21164;-66
2021/03/21 06:11:07;;;;;;;4.70;4.20;;;;;;;11.69;59.09;99727.00;1796452;78;21375;-68
2021/03/21 06:13:55;;;;;;;4.58;3.98;;;;;;;11.67;59.17;99715.70;1754983;79;21213;-67
2021/03/21 06:17:04;;;;;;;4.47;4.03;;;;;;;11.67;59.33;99711.72;1783704;78;21143;-67
2021/03/21 06:19:49;;;;;;;5.30;4.30;;;;;;;11.67;59.40;99716.53;1778867;79;21154;-68
2021/03/21 06:22:50;;;;;;;5.20;4.37;;;;;;;11.68;59.43;99711.52;1782078;79;21555;-67
2021/03/21 06:25:44;;;;;;;5.22;4.37;;;;;;;11.68;59.49;99710.19;1756339;79;21203;-68
2021/03/21 06:28:35;;;;;;;4.72;4.28;;;;;;;11.70;59.56;99712.67;1766360;79;21146;-68
2021/03/21 06:31:44;;;;;;;5.33;4.75;;;;;;;11.71;59.57;99713.02;1783700;78;21202;-68
2021/03/21 06:34:22;;;;;;;5.25;4.62;;;;;;;11.72;59.69;99706.16;1764545;79;21175;-67
2021/03/21 06:37:00;;;;;;;4.90;4.35;;;;;;;11.71;59.75;99700.53;1775610;79;21159;-68
2021/03/21 06:39:59;;;;;;;5.83;5.22;;;;;;;11.82;59.61;99691.33;1759923;79;22125;-69
2021/03/21 06:42:59;;;;;;;5.40;4.30;;;;;;;11.95;59.42;99682.75;1775000;79;21601;-68
2021/03/21 06:46:07;;;;;;;5.72;4.85;;;;;;;11.94;59.41;99683.78;1768245;79;21197;-69
2021/03/21 06:48:56;;;;;;;5.10;4.60;;;;;;;11.92;59.47;99675.96;1795151;79;21118;-68
2021/03/21 06:51:52;;;;;;;5.33;4.65;;;;;;;11.90;59.62;99669.99;1782871;80;21127;-69
2021/03/21 06:54:43;;;;;;;6.42;5.83;;;;;;;11.90;59.57;99668.66;1795266;79;21396;-68
2021/03/21 06:57:34;;;;;;;5.28;4.78;;;;;;;11.91;59.63;99666.81;1780075;78;21226;-69
2021/03/21 07:00:45;;;;;;;4.92;4.28;;;;;;;11.92;59.70;99671.15;1778919;78;21217;-69
2021/03/21 07:03:43;;;;;;;5.87;5.30;;;;;;;11.93;59.71;99659.48;1781925;78;21373;-69
2021/03/21 07:06:59;;;;;;;6.40;5.28;;;;;;;11.93;59.95;99656.81;1770030;79;21599;-69
2021/03/21 07:09:53;;;;;;;5.78;5.17;;;;;;;11.93;60.04;99658.97;1772590;79;21379;-67
2021/03/21 07:12:52;;;;;;;5.92;4.92;;;;;;;11.94;60.25;99658.48;1760119;79;21198;-67
2021/03/21 07:15:58;;;;;;;6.58;5.45;;;;;;;12.05;60.21;99651.37;1794048;79;21178;-68
2021/03/21 07:18:50;;;;;;;6.45;5.83;;;;;;;12.16;60.05;99642.14;1780585;78;21166;-68
2021/03/21 07:21:49;;;;;;;6.10;5.08;;;;;;;12.13;60.25;99644.67;1810912;77;21149;-68
2021/03/21 07:24:54;;;;;;;6.45;5.80;;;;;;;12.13;60.23;99631.84;1791598;77;22093;-69
2021/03/21 07:27:27;;;;;;;6.75;5.83;;;;;;;12.13;60.30;99627.84;1794009;78;21149;-69
2021/03/21 07:30:04;;;;;;;10.65;6.35;;;;;;;12.13;60.38;99628.69;1784051;78;21185;-69
2021/03/21 07:32:53;;;;;;;8.33;6.40;;;;;;;12.15;60.36;99617.35;1802259;78;21141;-70
2021/03/21 07:35:44;;;;;;;6.53;5.65;;;;;;;12.16;60.40;99606.19;1808946;77;21150;-69
2021/03/21 07:38:23;;;;;;;7.28;6.30;;;;;;;12.18;60.40;99608.98;1808124;78;21640;-69
2021/03/21 07:41:03;;;;;;;7.40;6.62;;;;;;;12.20;60.38;99606.14;1791787;77;21138;-68
2021/03/21 07:43:46;;;;;;;7.22;6.45;;;;;;;12.23;60.45;99602.28;1812921;77;21637;-67
2021/03/21 07:46:57;;;;;;;8.03;6.47;;;;;;;12.32;60.28;99598.53;1803608;78;21157;-68
2021/03/21 07:50:04;;;;;;;7.22;6.40;;;;;;;12.44;59.99;99594.90;1807362;78;21597;-69
2021/03/21 07:53:11;;;;;;;7.30;6.58;;;;;;;12.42;59.93;99587.59;1803658;78;21742;-69
2021/03/21 07:55:53;;;;;;;6.80;6.10;;;;;;;12.42;60.00;99597.77;1802272;78;21605;-70
2021/03/21 07:58:50;;;;;;;6.97;6.03;;;;;;;12.43;60.04;99578.09;1806404;78;21173;-69
2021/03/21 08:01:18;;;;;;;7.67;6.60;;;;;;;12.46;59.96;99577.74;1800643;77;21162;-67
2021/03/21 08:04:00;;;;;;;7.75;6.47;;;;;;;12.49;59.96;99580.53;1802094;78;21150;-67
2021/03/21 08:06:43;;;;;;;8.00;6.55;;;;;;;12.52;59.83;99569.52;1798324;77;22301;-69
2021/03/21 08:09:21;;;;;;;7.33;6.47;;;;;;;12.55;59.89;99567.80;1808912;77;21196;-68
2021/03/21 08:12:21;;;;;;;6.70;6.00;;;;;;;12.57;59.86;99557.30;1799611;77;21148;-69
2021/03/21 08:15:13;;;;;;;7.03;6.22;;;;;;;12.61;59.84;99561.72;1793890;78;21173;-67
2021/03/21 08:17:46;;;;;;;8.03;6.90;;;;;;;12.63;59.71;99550.37;1790511;78;21118;-67
2021/03/21 08:20:22;;;;;;;8.70;7.15;;;;;;;12.64;59.66;99545.38;1790628;78;21182;-68
2021/03/21 08:22:50;;;;;;;7.03;6.33;;;;;;;12.59;59.59;99528.63;1800001;78;21177;-69
2021/03/21 08:25:27;;;;;;;7.62;6.50;;;;;;;12.76;59.50;99544.38;1790052;78;21154;-70
2021/03/21 08:27:54;;;;;;;7.20;6.37;;;;;;;12.88;59.30;99534.05;1796175;78;21192;-69
2021/03/21 08:30:26;;;;;;;6.92;6.15;;;;;;;12.89;59.22;99523.21;1791404;78;21608;-68
2021/03/21 08:33:03;;;;;;;7.50;6.55;;;;;;;12.91;59.04;99521.70;1799907;77;21401;-69
2021/03/21 08:35:34;;;;;;;6.95;6.25;;;;;;;12.93;59.11;99519.16;1797202;77;21566;-71
2021/03/21 08:38:17;;;;;;;7.78;6.95;;;;;;;12.96;58.93;99520.60;1797102;77;21141;-69
2021/03/21 08:40:45;;;;;;;7.37;6.65;;;;;;;13.01;58.91;99516.05;1788022;78;21127;-68
2021/03/21 08:43:24;;;;;;;7.30;6.28;;;;;;;13.03;58.87;99517.51;1806572;77;21190;-68
2021/03/21 08:46:03;;;;;;;7.17;6.47;;;;;;;13.06;58.95;99505.14;1813272;78;21359;-68
2021/03/21 08:48:37;;;;;;;7.25;6.50;;;;;;;13.10;58.87;99494.41;1788738;77;21737;-68
2021/03/21 08:51:14;;;;;;;7.58;6.83;;;;;;;13.15;58.91;99489.34;1804069;77;21690;-69
2021/03/21 08:54:20;;;;;;;8.10;7.30;;;;;;;13.21;58.83;99491.72;1792412;78;21581;-69
2021/03/21 08:57:14;;;;;;;8.28;7.35;;;;;;;13.26;58.72;99495.98;1804697;78;21141;-69
2021/03/21 08:59:44;;;;;;;7.40;6.72;;;;;;;13.31;58.60;99484.78;1800059;78;21231;-70
2021/03/21 09:02:19;;;;;;;7.37;6.65;;;;;;;13.36;58.53;99473.83;1811326;77;21154;-68
2021/03/21 09:05:07;;;;;;;7.55;6.78;;;;;;;13.43;58.40;99473.08;1801295;78;21547;-68
2021/03/21 09:07:36;;;;;;;7.85;7.05;;;;;;;13.50;58.21;99469.93;1811141;78;21110;-71
2021/03/21 09:10:30;;;;;;;7.42;6.72;;;;;;;13.58;58.00;99465.80;1795871;78;21170;-69
2021/03/21 09:13:14;;;;;;;7.40;6.70;;;;;;;13.66;57.79;99480.33;1790707;78;21352;-69
2021/03/21 09:15:47;;;;;;;7.40;6.65;;;;;;;13.74;57.61;99453.48;1795728;78;21557;-69
2021/03/21 09:18:23;;;;;;;7.53;6.73;;;;;;;13.81;57.47;99450.87;1776757;78;21570;-68
2021/03/21 09:21:02;;;;;;;7.22;6.53;;;;;;;13.86;57.47;99451.08;1789636;77;21969;-67
2021/03/21 09:23:44;;;;;;;7.58;6.78;;;;;;;13.94;57.25;99456.26;1790825;78;21157;-69
2021/03/21 09:26:23;;;;;;;7.00;6.30;;;;;;;14.02;57.10;99441.11;1800631;78;21372;-68
2021/03/21 09:28:55;;;;;;;8.65;7.15;;;;;;;14.09;57.01;99444.13;1809587;78;21142;-69
2021/03/21 09:31:24;;;;;;;7.42;6.65;;;;;;;14.17;56.91;99440.45;1802414;78;21156;-69
2021/03/21 09:34:05;;;;;;;7.20;6.50;;;;;;;14.25;56.84;99438.94;1799222;78;21194;-68
2021/03/21 09:36:47;;;;;;;7.62;6.67;;;;;;;14.35;56.77;99437.23;1794666;77;21197;-69
2021/03/21 09:39:36;;;;;;;7.05;5.80;;;;;;;14.44;56.67;99437.89;1765764;79;21470;-71
2021/03/21 09:42:10;;;;;;;7.42;6.58;;;;;;;14.54;56.52;99450.36;1771197;77;21167;-67
2021/03/21 09:44:43;;;;;;;6.22;5.62;;;;;;;14.64;56.38;99412.09;1792490;78;21590;-68
2021/03/21 09:47:34;;;;;;;7.17;6.47;;;;;;;14.74;56.23;99430.41;1773619;79;21210;-69
2021/03/21 09:50:25;;;;;;;6.35;5.75;;;;;;;14.87;56.10;99402.84;1776959;78;21170;-67
2021/03/21 09:53:18;;;;;;;7.03;6.22;;;;;;;14.98;56.08;99400.09;1777234;79;21400;-63
2021/03/21 09:55:52;;;;;;;6.33;5.53;;;;;;;15.09;56.37;99364.70;1795343;78;21142;-68
2021/03/21 09:58:36;;;;;;;7.35;6.00;;;;;;;15.25;56.17;99394.22;1800056;78;21648;-72
2021/03/21 10:01:32;;;;;;;6.25;5.65;;;;;;;15.40;55.60;99382.77;1743770;78;21177;-69
2021/03/21 10:04:07;;;;;;;8.45;4.95;;;;;;;15.56;55.57;99378.02;1763476;79;21218;-67
2021/03/21 10:06:38;;;;;;;6.90;5.47;;;;;;;15.70;55.53;99376.94;1788965;78;21463;-69
2021/03/21 10:09:15;;;;;;;7.22;5.05;;;;;;;15.82;55.49;99381.15;1780852;78;21275;-69
2021/03/21 10:11:46;;;;;;;5.58;5.03;;;;;;;15.95;55.36;99372.26;1804527;77;21131;-69
2021/03/21 10:14:31;;;;;;;5.70;5.15;;;;;;;16.08;55.07;99381.58;1793223;78;21167;-69
2021/03/21 10:17:02;;;;;;;7.92;5.72;;;;;;;16.21;54.60;99363.29;1799611;77;21132;-69
2021/03/21 10:19:55;;;;;;;6.17;5.37;;;;;;;16.35;54.15;99390.31;1799168;78;22274;-69
2021/03/21 10:22:31;;;;;;;5.87;5.17;;;;;;;16.45;53.98;99392.00;1798651;77;21129;-70
2021/03/21 10:25:04;;;;;;;5.97;5.33;;;;;;;16.59;53.78;99365.95;1806055;78;21162;-68
2021/03/21 10:27:37;;;;;;;6.00;4.85;;;;;;;16.71;53.36;99360.72;1760386;77;28721;-66
2021/03/21 10:30:28;;;;;;;6.60;5.15;;;;;;;16.84;53.05;99353.95;1803044;77;21126;-69
2021/03/21 10:33:04;;;;;;;6.45;5.47;;;;;;;16.97;52.63;99340.11;1799058;78;21479;-69
2021/03/21 10:35:38;;;;;;;5.58;5.08;;;;;;;17.10;52.20;99335.44;1793254;78;21213;-67
2021/03/21 10:38:07;;;;;;;5.75;4.62;;;;;;;17.23;51.83;99335.00;1807462;78;21161;-72
2021/03/21 10:40:45;;;;;;;5.72;4.75;;;;;;;17.36;51.56;99324.66;1805632;77;21116;-69
2021/03/21 10:43:20;;;;;;;5.10;4.58;;;;;;;17.47;51.32;99338.70;1785239;78;21182;-66
2021/03/21 10:45:54;;;;;;;5.20;4.70;;;;;;;17.62;51.06;99343.18;1798016;77;21372;-70
2021/03/21 10:48:30;;;;;;;5.20;4.65;;;;;;;17.75;50.85;99330.13;1799852;78;21170;-70
2021/03/21 10:51:06;;;;;;;6.08;5.45;;;;;;;17.90;50.63;99319.00;1769803;78;21613;-68
2021/03/21 10:53:39;;;;;;;5.65;5.05;;;;;;;18.04;50.35;99335.27;1804408;78;21154;-69
2021/03/21 10:56:22;;;;;;;5.70;4.53;;;;;;;18.23;50.26;99305.64;1792248;78;21193;-70
2021/03/21 10:59:22;;;;;;;5.60;5.00;;;;;;;18.57;49.97;99320.24;1779204;79;21463;-70
2021/03/21 11:01:49;;;;;;;5.67;4.50;;;;;;;18.99;49.62;99300.03;1799506;78;21653;-71
2021/03/21 11:04:27;;;;;;;4.65;4.17;;;;;;;19.49;48.61;99305.44;1793340;78;21576;-72
2021/03/21 11:07:02;;;;;;;4.58;4.17;;;;;;;19.94;47.90;99291.81;1804108;77;21114;-73
2021/03/21 11:09:34;;;;;;;4.37;3.98;;;;;;;20.36;47.27;99276.66;1808037;78;21133;-75
2021/03/21 11:12:04;;;;;;;5.22;4.70;;;;;;;20.80;46.48;99285.78;1807124;78;22324;-73
2021/03/21 11:14:36;;;;;;;7.00;4.20;;;;;;;21.01;45.97;99282.02;1793976;78;21180;-71
2021/03/21 11:17:20;;;;;;;4.53;3.98;;;;;;;21.16;45.48;99286.83;1800138;78;21060;-71
2021/03/21 11:19:52;;;;;;;5.95;4.15;;;;;;;21.29;45.00;99258.11;1808502;77;21170;-71
2021/03/21 11:22:35;;;;;;;4.67;4.20;;;;;;;21.41;44.74;99259.34;1802181;77;21380;-70
2021/03/21 11:25:06;;;;;;;4.72;4.05;;;;;;;21.38;44.55;99243.11;1783218;78;22280;-73
2021/03/21 11:27:36;;;;;;;6.65;4.60;;;;;;;21.46;44.39;99254.55;1797688;78;21185;-66
2021/03/21 11:30:15;;;;;;;11.63;8.08;;;;;;;21.40;44.85;99260.39;1797030;77;21182;-66
2021/03/21 11:32:42;;;;;;;9.33;7.47;;;;;;;21.32;41.97;99234.62;1799340;77;21150;-67
2021/03/21 11:35:25;;;;;;;12.73;7.87;;;;;;;21.23;40.30;99255.58;1778223;77;21217;-67
2021/03/21 11:37:57;;;;;;;8.88;7.58;;;;;;;21.11;38.87;99252.99;1798563;77;21379;-65
2021/03/21 11:40:31;;;;;;;22.13;7.60;;;;;;;20.98;36.97;99244.73;1799928;78;21218;-67
2021/03/21 11:43:25;;;;;;;10.03;7.30;;;;;;;20.78;37.59;99233.09;1783679;77;21204;-67
2021/03/21 11:45:52;;;;;;;9.73;7.05;;;;;;;20.76;39.58;99237.92;1793362;78;21202;-67
2021/03/21 11:48:35;;;;;;;10.95;7.33;;;;;;;20.95;39.79;99224.42;1759021;80;21201;-65
2021/03/21 11:51:04;;;;;;;9.68;6.42;;;;;;;21.15;39.76;99232.52;1779356;78;22291;-65
2021/03/21 11:53:36;;;;;;;10.90;6.58;;;;;;;21.48;39.55;99217.28;1816467;77;21575;-66
2021/03/21 11:56:26;;;;;;;8.48;6.03;;;;;;;21.72;39.31;99232.70;1818334;78;21647;-64
2021/03/21 11:58:58;;;;;;;9.75;5.92;;;;;;;21.94;39.02;99219.13;1824811;77;21156;-63
2021/03/21 12:01:48;;;;;;;7.60;6.08;;;;;;;22.21;38.74;99199.37;1799812;78;21155;-63
2021/03/21 12:04:25;;;;;;;10.28;6.20;;;;;;;22.52;38.26;99218.03;1773207;80;21202;-66
2021/03/21 12:06:58;;;;;;;9.35;6.17;;;;;;;22.74;38.70;99196.28;1803238;77;21558;-65
2021/03/21 12:09:38;;;;;;;10.45;6.50;;;;;;;22.99;38.04;99197.51;1804247;78;21154;-65
2021/03/21 12:12:39;;;;;;;8.65;6.35;;;;;;;23.23;37.15;99184.36;1804063;78;21593;-62
2021/03/21 12:15:29;;;;;;;9.63;7.62;;;;;;;23.50;36.32;99174.69;1800175;78;21114;-65
2021/03/21 12:18:13;;;;;;;9.18;8.25;;;;;;;23.60;28.15;99169.28;1798055;78;21447;-65
2021/03/21 12:20:47;;;;;;;8.90;8.00;;;;;;;23.13;24.89;99173.75;1811021;78;21194;-62
2021/03/21 12:23:48;;;;;;;8.88;7.80;;;;;;;22.28;24.11;99177.01;1814681;77;21189;-63
2021/03/21 12:26:26;;;;;;;9.13;7.83;;;;;;;21.39;24.84;99166.38;1809096;78;21163;-65
2021/03/21 12:29:07;;;;;;;8.75;7.92;;;;;;;20.61;25.70;99175.11;1801674;77;21126;-64
2021/03/21 12:31:39;;;;;;;9.58;7.28;;;;;;;20.16;25.88;99191.63;1789263;77;21367;-65
2021/03/21 12:34:36;;;;;;;14.98;8.28;;;;;;;19.76;25.74;99165.62;1791635;78;21153;-64
2021/03/21 12:37:10;;;;;;;9.78;8.13;;;;;;;19.52;25.54;99166.75;1796547;78;21090;-63
2021/03/21 12:39:41;;;;;;;8.90;7.78;;;;;;;19.36;28.03;99167.80;1771827;78;21154;-68